createdAt,value
2022-10-01T00:05:02.043Z,35.77
2022-10-01T00:25:52.894Z,32.97
2022-10-01T00:36:21.195Z,39.70
2022-10-01T00:46:48.160Z,40.53
2022-10-01T01:07:35.354Z,32.70
2022-10-01T01:18:04.459Z,40.67
2022-10-01T01:28:36.438Z,34.33
2022-10-01T01:39:02.462Z,42.92
2022-10-01T01:49:26.944Z,30.57
2022-10-01T01:59:49.940Z,39.70
2022-10-01T02:10:24.304Z,31.83
2022-10-01T02:20:56.848Z,38.80
2022-10-01T02:31:22.231Z,32.38
2022-10-01T02:41:53.042Z,32.20
2022-10-01T02:52:27.665Z,40.63
2022-10-01T03:02:50.692Z,30.70
2022-10-01T03:13:13.596Z,32.20
2022-10-01T03:23:37.070Z,32.35
2022-10-01T03:34:02.200Z,28.83
2022-10-01T03:44:24.635Z,24.10
2022-10-01T03:54:51.548Z,26.80
2022-10-01T04:15:40.256Z,22.83
2022-10-01T04:26:03.142Z,28.05
2022-10-01T04:36:27.386Z,19.35
2022-10-01T04:46:49.068Z,17.38
2022-10-01T04:57:12.445Z,21.77
2022-10-01T05:07:35.450Z,18.85
2022-10-01T05:17:58.616Z,11.85
2022-10-01T05:28:22.726Z,12.27
2022-10-01T05:38:45.967Z,17.92
2022-10-01T05:49:08.319Z,17.10
2022-10-01T05:59:32.156Z,15.48
2022-10-01T06:09:54.031Z,23.73
2022-10-01T06:20:19.054Z,15.35
2022-10-01T06:30:41.312Z,18.63
2022-10-01T06:41:05.276Z,14.77
2022-10-01T06:51:40.434Z,14.20
2022-10-01T07:02:03.341Z,9.77
2022-10-01T07:12:25.031Z,11.55
2022-10-01T07:22:49.176Z,15.05
2022-10-01T07:33:10.877Z,12.15
2022-10-01T07:43:36.215Z,13.25
2022-10-01T07:53:59.014Z,11.50
2022-10-01T08:04:40.477Z,15.52
2022-10-01T08:15:02.191Z,21.45
2022-10-01T08:25:25.942Z,12.13
2022-10-01T08:35:47.572Z,13.20
2022-10-01T08:46:14.875Z,11.20
2022-10-01T08:56:40.416Z,15.20
2022-10-01T09:07:08.108Z,13.90
2022-10-01T09:17:45.105Z,6.38
2022-10-01T09:28:15.697Z,7.20
2022-10-01T09:38:41.246Z,5.97
2022-10-01T09:49:12.928Z,5.87
2022-10-01T09:59:41.400Z,5.35
2022-10-01T10:10:23.416Z,5.90
2022-10-01T10:20:53.891Z,6.63
2022-10-01T10:31:20.252Z,6.20
2022-10-01T10:41:45.485Z,6.63
2022-10-01T10:52:20.740Z,10.20
2022-10-01T11:02:50.927Z,13.37
2022-10-01T11:13:34.758Z,11.35
2022-10-01T11:24:17.253Z,8.13
2022-10-01T11:34:58.163Z,7.80
2022-10-01T11:45:23.505Z,13.32
2022-10-01T11:56:12.236Z,6.43
2022-10-01T12:06:38.655Z,5.97
2022-10-01T12:17:12.123Z,6.57
2022-10-01T12:27:45.003Z,6.63
2022-10-01T12:38:20.607Z,5.18
2022-10-01T12:48:49.092Z,4.47
2022-10-01T12:59:25.670Z,6.32
2022-10-01T13:09:53.503Z,6.20
2022-10-01T13:20:26.095Z,6.30
2022-10-01T13:31:00.184Z,5.97
2022-10-01T13:41:26.149Z,4.97
2022-10-01T13:51:47.761Z,6.43
2022-10-01T14:02:34.923Z,4.25
2022-10-01T14:13:22.681Z,7.70
2022-10-01T14:23:55.793Z,4.00
2022-10-01T14:34:28.077Z,4.18
2022-10-01T14:44:54.588Z,5.82
2022-10-01T14:55:23.014Z,4.50
2022-10-01T15:05:49.289Z,7.45
2022-10-01T15:26:35.957Z,2.60
2022-10-01T15:36:59.892Z,2.58
2022-10-01T15:47:34.834Z,2.90
2022-10-01T15:58:02.133Z,3.20
2022-10-01T16:08:34.185Z,5.05
2022-10-01T16:18:59.219Z,2.92
2022-10-01T16:29:25.524Z,4.33
2022-10-01T16:39:46.840Z,3.67
2022-10-01T16:50:13.596Z,6.07
2022-10-01T17:11:01.260Z,7.25
2022-10-01T17:21:22.411Z,5.43
2022-10-01T17:31:47.818Z,3.88
2022-10-01T17:42:10.180Z,6.70
2022-10-01T17:52:33.216Z,8.00
2022-10-01T18:02:55.259Z,7.30
2022-10-01T18:13:18.072Z,4.82
2022-10-01T18:23:39.714Z,6.93
2022-10-01T18:34:08.884Z,3.95
2022-10-01T18:44:30.522Z,3.17
2022-10-01T18:55:21.315Z,4.80
2022-10-01T19:06:08.951Z,4.45
2022-10-01T19:16:46.061Z,5.45
2022-10-01T19:27:19.067Z,5.90
2022-10-01T19:37:46.965Z,7.78
2022-10-01T19:48:16.762Z,11.27
2022-10-01T19:58:39.763Z,6.55
2022-10-01T20:09:04.740Z,5.50
2022-10-01T20:19:32.284Z,4.13
2022-10-01T20:30:04.267Z,4.07
2022-10-01T20:40:31.153Z,6.47
2022-10-01T20:50:55.565Z,5.03
2022-10-01T21:01:21.510Z,4.10
2022-10-01T21:11:46.603Z,3.60
2022-10-01T21:22:21.570Z,4.22
2022-10-01T21:33:05.209Z,11.75
2022-10-01T21:43:40.247Z,8.30
2022-10-01T21:54:20.130Z,8.10
2022-10-01T22:04:48.615Z,3.63
2022-10-01T22:15:21.925Z,8.25
2022-10-01T22:25:52.399Z,18.88
2022-10-01T22:36:19.275Z,5.72
2022-10-01T22:47:05.963Z,7.25
2022-10-01T22:57:41.673Z,7.35
2022-10-01T23:08:17.504Z,5.93
2022-10-01T23:18:47.336Z,6.67
2022-10-01T23:29:34.201Z,5.43
2022-10-01T23:40:00.062Z,11.32
2022-10-01T23:50:31.285Z,8.50
